createdAt,value
2022-08-26T00:01:30.521Z,88.07
2022-08-26T00:03:57.149Z,88.29
2022-08-26T00:06:24.699Z,88.00
2022-08-26T00:08:51.394Z,87.82
2022-08-26T00:11:26.663Z,87.66
2022-08-26T00:13:54.770Z,87.54
2022-08-26T00:16:22.349Z,87.50
2022-08-26T00:18:48.969Z,87.95
2022-08-26T00:21:16.032Z,87.72
2022-08-26T00:23:42.771Z,87.67
2022-08-26T00:26:09.549Z,87.46
2022-08-26T00:28:37.958Z,87.16
2022-08-26T00:31:07.167Z,87.16
2022-08-26T00:33:33.788Z,86.93
2022-08-26T00:36:00.667Z,86.94
2022-08-26T00:38:27.542Z,86.69
2022-08-26T00:40:55.747Z,87.59
2022-08-26T00:43:23.938Z,87.74
2022-08-26T00:45:51.887Z,88.50
2022-08-26T00:48:19.955Z,88.47
2022-08-26T00:50:55.994Z,88.50
2022-08-26T00:53:24.196Z,88.42
2022-08-26T00:56:16.677Z,88.49
2022-08-26T00:58:45.387Z,88.23
2022-08-26T01:01:17.107Z,88.41
2022-08-26T01:03:43.948Z,88.36
2022-08-26T01:06:12.556Z,88.29
2022-08-26T01:08:40.249Z,88.35
2022-08-26T01:11:07.426Z,88.20
2022-08-26T01:13:34.014Z,88.29
2022-08-26T01:16:02.868Z,88.09
2022-08-26T01:18:29.791Z,88.43
2022-08-26T01:21:06.210Z,88.18
2022-08-26T01:23:39.257Z,88.40
2022-08-26T01:26:19.636Z,89.05
2022-08-26T01:28:51.763Z,89.09
2022-08-26T01:31:20.742Z,89.94
2022-08-26T01:33:59.485Z,89.96
2022-08-26T01:36:26.602Z,90.23
2022-08-26T01:38:53.357Z,90.14
2022-08-26T01:41:27.139Z,90.29
2022-08-26T01:43:54.760Z,89.85
2022-08-26T01:46:22.657Z,90.08
2022-08-26T01:48:49.624Z,90.19
2022-08-26T01:51:21.144Z,90.07
2022-08-26T01:53:47.745Z,90.12
2022-08-26T01:56:16.406Z,90.26
2022-08-26T01:58:48.766Z,90.28
2022-08-26T02:01:15.458Z,90.17
2022-08-26T02:03:56.103Z,90.75
2022-08-26T02:06:23.873Z,91.17
2022-08-26T02:08:53.176Z,91.07
2022-08-26T02:11:21.285Z,91.05
2022-08-26T02:13:56.544Z,91.06
2022-08-26T02:16:24.911Z,90.50
2022-08-26T02:18:52.767Z,90.22
2022-08-26T02:21:20.057Z,90.21
2022-08-26T02:23:47.605Z,90.56
2022-08-26T02:26:19.170Z,90.43
2022-08-26T02:29:25.311Z,90.45
2022-08-26T02:31:52.110Z,90.18
2022-08-26T02:34:23.910Z,89.83
2022-08-26T02:36:57.132Z,89.94
2022-08-26T02:39:24.044Z,89.87
2022-08-26T02:41:50.645Z,90.00
2022-08-26T02:44:17.593Z,90.19
2022-08-26T02:46:46.825Z,90.16
2022-08-26T02:49:13.976Z,90.34
2022-08-26T02:51:40.742Z,90.44
2022-08-26T02:54:09.689Z,90.76
2022-08-26T02:56:36.494Z,90.61
2022-08-26T02:59:03.366Z,90.42
2022-08-26T03:01:32.516Z,90.07
2022-08-26T03:03:59.969Z,90.39
2022-08-26T03:06:26.657Z,90.65
2022-08-26T03:08:53.370Z,90.55
2022-08-26T03:11:20.097Z,90.45
2022-08-26T03:13:48.730Z,90.46
2022-08-26T03:16:15.413Z,90.15
2022-08-26T03:18:42.405Z,90.57
2022-08-26T03:21:11.194Z,90.34
2022-08-26T03:23:38.465Z,90.47
2022-08-26T03:26:05.690Z,90.40
2022-08-26T03:28:32.477Z,90.32
2022-08-26T03:30:59.378Z,90.60
2022-08-26T03:33:26.226Z,90.09
2022-08-26T03:35:53.211Z,90.22
2022-08-26T03:38:21.013Z,90.32
2022-08-26T03:40:47.839Z,89.72
2022-08-26T03:43:14.725Z,89.23
2022-08-26T03:45:41.443Z,90.30
2022-08-26T03:48:09.299Z,90.15
2022-08-26T03:50:36.039Z,90.61
2022-08-26T03:53:02.939Z,90.77
2022-08-26T03:55:32.013Z,90.85
2022-08-26T03:57:59.472Z,90.91
2022-08-26T04:00:26.250Z,91.13
2022-08-26T04:02:53.405Z,91.32
2022-08-26T04:05:20.834Z,91.29
2022-08-26T04:07:47.925Z,91.21
2022-08-26T04:10:20.249Z,91.29
2022-08-26T04:12:47.250Z,91.71
2022-08-26T04:15:15.196Z,91.84
2022-08-26T04:17:42.096Z,91.97
2022-08-26T04:20:09.368Z,91.82
2022-08-26T04:22:36.155Z,92.01
2022-08-26T04:25:02.815Z,91.74
2022-08-26T04:27:33.822Z,91.55
2022-08-26T04:30:01.141Z,91.45
2022-08-26T04:32:27.760Z,91.45
2022-08-26T04:34:54.389Z,91.56
2022-08-26T04:37:21.781Z,91.33
2022-08-26T04:39:53.199Z,90.98
2022-08-26T04:42:25.896Z,91.08
2022-08-26T04:44:53.048Z,91.00
2022-08-26T04:47:19.688Z,90.84
2022-08-26T04:49:46.286Z,90.55
2022-08-26T04:52:13.018Z,90.54
2022-08-26T04:54:39.647Z,90.47
2022-08-26T04:57:08.673Z,89.99
2022-08-26T04:59:39.055Z,89.57
2022-08-26T05:02:06.875Z,89.26
2022-08-26T05:04:33.703Z,88.62
2022-08-26T05:07:02.734Z,88.53
2022-08-26T05:09:31.840Z,88.09
2022-08-26T05:12:08.078Z,87.91
2022-08-26T05:14:35.739Z,87.43
2022-08-26T05:17:02.886Z,86.65
2022-08-26T05:19:30.077Z,86.52
2022-08-26T05:21:56.706Z,86.28
2022-08-26T05:24:23.505Z,86.40
2022-08-26T05:26:50.203Z,86.38
2022-08-26T05:29:17.888Z,86.09
2022-08-26T05:31:44.651Z,85.30
2022-08-26T05:34:11.698Z,84.72
2022-08-26T05:36:39.168Z,84.28
2022-08-26T05:39:06.237Z,83.34
2022-08-26T05:41:36.510Z,82.84
2022-08-26T05:44:05.952Z,82.13
2022-08-26T05:46:32.766Z,79.49
2022-08-26T05:49:01.120Z,74.10
2022-08-26T05:51:27.800Z,70.01
2022-08-26T05:53:57.195Z,65.30
2022-08-26T05:56:26.195Z,60.62
2022-08-26T05:58:52.994Z,57.96
2022-08-26T06:01:24.236Z,55.21
2022-08-26T06:03:54.855Z,52.29
2022-08-26T06:06:29.184Z,49.39
2022-08-26T06:08:59.153Z,47.98
2022-08-26T06:11:26.143Z,45.19
2022-08-26T06:14:03.745Z,44.36
2022-08-26T06:16:31.161Z,42.54
2022-08-26T06:18:57.967Z,41.21
2022-08-26T06:21:25.817Z,40.77
2022-08-26T06:24:13.286Z,38.60
2022-08-26T06:26:42.802Z,37.53
2022-08-26T06:29:09.712Z,37.02
2022-08-26T06:31:36.577Z,37.04
2022-08-26T06:34:09.913Z,36.74
2022-08-26T06:36:38.136Z,37.28
2022-08-26T06:39:10.184Z,36.83
2022-08-26T06:41:41.435Z,36.60
2022-08-26T06:44:10.046Z,36.71
2022-08-26T06:46:37.213Z,37.09
2022-08-26T06:49:04.696Z,38.00
2022-08-26T06:51:33.204Z,39.37
2022-08-26T06:54:01.711Z,40.81
2022-08-26T06:56:32.483Z,42.36
2022-08-26T06:58:59.175Z,44.21
2022-08-26T07:01:37.432Z,45.44
2022-08-26T07:04:10.437Z,47.25
2022-08-26T07:06:39.110Z,49.03
2022-08-26T07:09:06.749Z,50.58
2022-08-26T07:11:37.345Z,52.20
2022-08-26T07:14:04.555Z,53.03
2022-08-26T07:16:31.436Z,54.17
2022-08-26T07:18:59.996Z,55.04
2022-08-26T07:21:30.077Z,56.08
2022-08-26T07:24:00.544Z,56.95
2022-08-26T07:26:29.063Z,57.68
2022-08-26T07:28:56.484Z,58.28
2022-08-26T07:31:24.820Z,58.84
2022-08-26T07:33:51.670Z,59.63
2022-08-26T07:36:19.388Z,60.06
2022-08-26T07:38:46.123Z,60.30
2022-08-26T07:41:14.244Z,60.89
2022-08-26T07:43:41.153Z,61.08
2022-08-26T07:46:07.917Z,61.99
2022-08-26T07:48:38.920Z,62.73
2022-08-26T07:51:06.112Z,63.27
2022-08-26T07:53:35.002Z,63.81
2022-08-26T07:56:01.677Z,64.21
2022-08-26T07:58:29.040Z,63.60
2022-08-26T08:00:55.711Z,64.11
2022-08-26T08:03:22.576Z,64.23
2022-08-26T08:05:49.297Z,63.92
2022-08-26T08:08:26.856Z,63.56
2022-08-26T08:10:55.426Z,63.66
2022-08-26T08:13:22.579Z,64.39
2022-08-26T08:15:50.431Z,64.28
2022-08-26T08:18:18.197Z,63.95
2022-08-26T08:20:59.208Z,64.11
2022-08-26T08:23:32.908Z,63.87
2022-08-26T08:26:17.945Z,63.70
2022-08-26T08:28:47.734Z,63.12
2022-08-26T08:31:52.092Z,62.57
2022-08-26T08:34:10.558Z,61.80
2022-08-26T08:36:37.182Z,61.97
2022-08-26T08:39:04.044Z,61.74
2022-08-26T08:42:16.133Z,61.54
2022-08-26T08:44:45.528Z,60.38
2022-08-26T08:47:26.035Z,60.68
2022-08-26T08:49:53.577Z,60.41
2022-08-26T08:52:29.289Z,60.09
2022-08-26T08:54:56.026Z,60.95
2022-08-26T08:57:32.940Z,60.84
2022-08-26T09:00:19.789Z,60.10
2022-08-26T09:03:03.808Z,60.50
2022-08-26T09:05:35.745Z,59.78
2022-08-26T09:08:03.719Z,60.03
2022-08-26T09:10:40.619Z,59.70
2022-08-26T09:13:16.964Z,59.39
2022-08-26T09:15:57.877Z,58.93
2022-08-26T09:18:33.635Z,59.80
2022-08-26T09:21:03.509Z,59.18
2022-08-26T09:23:31.022Z,59.39
2022-08-26T09:26:02.404Z,60.03
2022-08-26T09:28:30.049Z,58.98
2022-08-26T09:31:11.217Z,58.52
2022-08-26T09:33:38.790Z,58.96
2022-08-26T09:36:41.278Z,58.05
2022-08-26T09:39:27.793Z,57.61
2022-08-26T09:42:11.800Z,57.50
2022-08-26T09:44:58.191Z,57.78
2022-08-26T09:47:32.731Z,58.17
2022-08-26T09:50:09.382Z,58.16
2022-08-26T09:52:36.689Z,57.38
2022-08-26T09:55:12.794Z,56.22
2022-08-26T09:57:49.618Z,55.92
2022-08-26T10:00:42.344Z,54.42
2022-08-26T10:03:17.288Z,55.45
2022-08-26T10:05:58.603Z,55.88
2022-08-26T10:08:37.587Z,56.58
2022-08-26T10:11:07.720Z,55.78
2022-08-26T10:13:36.810Z,56.85
2022-08-26T10:16:07.844Z,55.25
2022-08-26T10:19:00.306Z,55.89
2022-08-26T10:21:39.725Z,57.51
2022-08-26T10:24:07.355Z,58.85
2022-08-26T10:26:59.948Z,57.63
2022-08-26T10:29:34.286Z,53.95
2022-08-26T10:32:04.880Z,55.03
2022-08-26T10:34:32.596Z,55.19
2022-08-26T10:37:14.280Z,56.99
2022-08-26T10:39:53.038Z,55.96
2022-08-26T10:42:51.477Z,55.32
2022-08-26T10:45:20.186Z,55.16
2022-08-26T10:48:00.959Z,53.80
2022-08-26T10:50:38.694Z,54.12
2022-08-26T10:53:32.900Z,53.09
2022-08-26T10:56:15.689Z,51.99
2022-08-26T10:59:24.774Z,53.48
2022-08-26T11:02:06.459Z,54.21
2022-08-26T11:04:34.958Z,55.72
2022-08-26T11:07:40.545Z,54.54
2022-08-26T11:10:12.967Z,55.19
2022-08-26T11:12:39.609Z,55.72
2022-08-26T11:15:14.716Z,53.98
2022-08-26T11:17:45.087Z,53.33
2022-08-26T11:20:13.498Z,55.75
2022-08-26T11:22:48.021Z,54.33
2022-08-26T11:25:29.286Z,55.04
2022-08-26T11:28:00.650Z,55.32
2022-08-26T11:30:33.486Z,55.56
2022-08-26T11:33:00.300Z,54.40
2022-08-26T11:35:26.811Z,55.35
2022-08-26T11:38:05.806Z,52.38
2022-08-26T11:40:35.450Z,47.68
2022-08-26T11:43:02.444Z,48.77
2022-08-26T11:45:39.451Z,50.22
2022-08-26T11:48:19.088Z,49.79
2022-08-26T11:51:01.874Z,49.74
2022-08-26T11:53:33.484Z,49.76
2022-08-26T11:56:02.002Z,51.40
2022-08-26T11:58:28.691Z,50.55
2022-08-26T12:01:00.472Z,47.75
2022-08-26T12:03:47.482Z,47.78
2022-08-26T12:06:31.248Z,50.03
2022-08-26T12:09:03.449Z,50.82
2022-08-26T12:11:34.561Z,49.00
2022-08-26T12:14:03.261Z,48.96
2022-08-26T12:16:32.170Z,49.14
2022-08-26T12:19:28.668Z,49.48
2022-08-26T12:22:04.903Z,48.99
2022-08-26T12:24:31.576Z,48.95
2022-08-26T12:27:28.893Z,47.98
2022-08-26T12:30:09.643Z,47.81
2022-08-26T12:32:57.332Z,46.65
2022-08-26T12:35:25.173Z,47.83
2022-08-26T12:37:52.147Z,48.45
2022-08-26T12:40:31.008Z,49.23
2022-08-26T12:43:00.471Z,47.72
2022-08-26T12:45:43.131Z,48.95
2022-08-26T12:48:26.166Z,48.51
2022-08-26T12:50:52.962Z,49.19
2022-08-26T12:53:23.582Z,50.03
2022-08-26T12:55:52.888Z,50.84
2022-08-26T12:58:27.227Z,52.28
2022-08-26T13:00:57.130Z,51.18
2022-08-26T13:03:33.790Z,50.25
2022-08-26T13:06:22.350Z,50.54
2022-08-26T13:08:59.587Z,51.58
2022-08-26T13:11:27.652Z,51.29
2022-08-26T13:14:08.847Z,51.02
2022-08-26T13:16:36.294Z,49.96
2022-08-26T13:19:10.417Z,48.30
2022-08-26T13:21:48.420Z,46.32
2022-08-26T13:24:20.933Z,46.94
2022-08-26T13:26:49.172Z,48.53
2022-08-26T13:29:15.894Z,49.31
2022-08-26T13:31:44.226Z,50.00
2022-08-26T13:34:19.548Z,48.84
2022-08-26T13:36:47.268Z,50.26
2022-08-26T13:39:14.148Z,48.08
2022-08-26T13:41:40.944Z,49.91
2022-08-26T13:44:07.626Z,50.25
2022-08-26T13:46:34.427Z,51.99
2022-08-26T13:49:01.330Z,53.62
2022-08-26T13:51:28.277Z,50.80
2022-08-26T13:53:55.117Z,49.50
2022-08-26T13:56:21.941Z,49.57
2022-08-26T13:58:48.736Z,47.85
2022-08-26T14:01:16.489Z,49.74
2022-08-26T14:03:43.397Z,49.81
2022-08-26T14:06:10.220Z,49.42
2022-08-26T14:08:37.076Z,49.28
2022-08-26T14:11:03.785Z,49.32
2022-08-26T14:13:30.439Z,49.12
2022-08-26T14:15:59.696Z,49.17
2022-08-26T14:18:32.294Z,49.73
2022-08-26T14:20:59.304Z,50.70
2022-08-26T14:23:26.314Z,50.21
2022-08-26T14:25:57.058Z,50.18
2022-08-26T14:28:23.819Z,48.86
2022-08-26T14:30:55.326Z,48.82
2022-08-26T14:33:24.984Z,48.42
2022-08-26T14:35:51.703Z,48.81
2022-08-26T14:38:18.553Z,49.61
2022-08-26T14:40:45.425Z,50.51
2022-08-26T14:43:14.312Z,49.36
2022-08-26T14:48:14.288Z,49.69
2022-08-26T14:50:40.993Z,49.61
2022-08-26T14:53:26.204Z,49.11
2022-08-26T14:55:52.943Z,49.87
2022-08-26T14:58:19.593Z,50.08
2022-08-26T15:00:46.228Z,49.19
2022-08-26T15:05:47.997Z,48.48
2022-08-26T15:08:16.896Z,49.10
2022-08-26T15:10:43.709Z,49.28
2022-08-26T15:13:10.403Z,49.52
2022-08-26T15:15:38.051Z,50.13
2022-08-26T15:18:04.739Z,49.58
2022-08-26T15:23:06.209Z,51.07
2022-08-26T15:25:33.112Z,50.57
2022-08-26T15:27:59.833Z,51.43
2022-08-26T15:30:27.363Z,53.83
2022-08-26T15:32:54.042Z,53.89
2022-08-26T15:35:20.861Z,54.48
2022-08-26T15:37:47.565Z,54.15
2022-08-26T15:40:14.428Z,54.77
2022-08-26T15:42:41.260Z,54.54
2022-08-26T15:45:08.330Z,55.53
2022-08-26T15:47:35.482Z,56.32
2022-08-26T15:50:22.119Z,54.82
2022-08-26T15:52:48.954Z,53.73
2022-08-26T15:55:15.666Z,53.59
2022-08-26T15:57:42.345Z,54.78
2022-08-26T16:00:10.070Z,56.51
2022-08-26T16:02:36.745Z,56.86
2022-08-26T16:05:03.491Z,56.93
2022-08-26T16:07:31.493Z,57.37
2022-08-26T16:09:58.178Z,56.90
2022-08-26T16:12:24.866Z,57.71
2022-08-26T16:14:52.705Z,57.99
2022-08-26T16:17:19.714Z,58.28
2022-08-26T16:19:46.795Z,58.81
2022-08-26T16:22:13.456Z,58.57
2022-08-26T16:24:40.194Z,59.39
2022-08-26T16:27:06.981Z,59.57
2022-08-26T16:29:33.684Z,59.85
2022-08-26T16:32:00.615Z,60.15
2022-08-26T16:34:27.283Z,58.16
2022-08-26T16:36:54.082Z,56.27
2022-08-26T16:39:20.732Z,55.22
2022-08-26T16:41:47.471Z,55.41
2022-08-26T16:44:14.315Z,54.90
2022-08-26T16:46:41.289Z,54.52
2022-08-26T16:49:08.159Z,54.60
2022-08-26T16:51:38.155Z,56.08
2022-08-26T16:54:05.616Z,57.74
2022-08-26T16:56:34.532Z,57.63
2022-08-26T16:59:02.765Z,58.40
2022-08-26T17:01:29.554Z,58.54
2022-08-26T17:03:56.234Z,58.69
2022-08-26T17:06:23.172Z,59.24
2022-08-26T17:08:49.903Z,59.65
2022-08-26T17:11:16.801Z,59.99
2022-08-26T17:13:43.581Z,60.36
2022-08-26T17:16:11.102Z,61.04
2022-08-26T17:18:39.929Z,61.41
2022-08-26T17:21:08.747Z,62.53
2022-08-26T17:23:35.989Z,62.72
2022-08-26T17:26:02.886Z,62.87
2022-08-26T17:28:29.685Z,64.14
2022-08-26T17:31:11.471Z,64.38
2022-08-26T17:33:38.431Z,65.00
2022-08-26T17:36:06.147Z,65.50
2022-08-26T17:38:32.899Z,66.84
2022-08-26T17:40:59.512Z,67.22
2022-08-26T17:43:26.836Z,67.72
2022-08-26T17:46:07.031Z,69.20
2022-08-26T17:48:35.004Z,69.69
2022-08-26T17:51:09.299Z,69.34
2022-08-26T17:53:35.956Z,69.50
2022-08-26T17:56:04.995Z,71.09
2022-08-26T17:58:35.175Z,71.03
2022-08-26T18:01:02.166Z,70.64
2022-08-26T18:03:28.859Z,71.31
2022-08-26T18:05:55.486Z,70.66
2022-08-26T18:08:22.225Z,70.73
2022-08-26T18:10:49.010Z,71.90
2022-08-26T18:13:15.783Z,71.73
2022-08-26T18:15:43.557Z,72.24
2022-08-26T18:18:10.185Z,72.93
2022-08-26T18:20:38.226Z,73.33
2022-08-26T18:23:05.066Z,74.04
2022-08-26T18:25:34.530Z,75.30
2022-08-26T18:28:30.098Z,75.90
2022-08-26T18:30:58.986Z,76.15
2022-08-26T18:33:25.684Z,76.26
2022-08-26T18:35:52.890Z,75.86
2022-08-26T18:38:19.666Z,75.94
2022-08-26T18:40:46.508Z,76.10
2022-08-26T18:43:13.174Z,76.07
2022-08-26T18:46:02.469Z,75.79
2022-08-26T18:48:29.133Z,75.79
2022-08-26T18:50:55.804Z,75.56
2022-08-26T18:53:22.482Z,74.75
2022-08-26T18:55:49.153Z,75.91
2022-08-26T18:58:16.433Z,76.18
2022-08-26T19:00:43.018Z,76.35
2022-08-26T19:03:15.630Z,76.55
2022-08-26T19:05:45.834Z,76.43
2022-08-26T19:08:12.534Z,76.12
2022-08-26T19:10:39.293Z,75.77
2022-08-26T19:13:06.875Z,76.09
2022-08-26T19:15:37.716Z,76.24
2022-08-26T19:18:04.496Z,76.50
2022-08-26T19:20:31.114Z,76.43
2022-08-26T19:23:02.655Z,76.57
2022-08-26T19:25:42.118Z,76.34
2022-08-26T19:28:08.845Z,76.71
2022-08-26T19:30:42.818Z,76.40
2022-08-26T19:33:09.632Z,76.90
2022-08-26T19:35:36.327Z,76.72
2022-08-26T19:38:03.270Z,77.10
2022-08-26T19:40:30.002Z,77.03
2022-08-26T19:42:56.871Z,77.68
2022-08-26T19:45:25.191Z,77.45
2022-08-26T19:47:53.043Z,77.88
2022-08-26T19:50:19.931Z,77.87
2022-08-26T19:52:46.598Z,77.84
2022-08-26T19:55:17.278Z,78.22
2022-08-26T19:57:44.169Z,78.63
2022-08-26T20:00:12.399Z,78.93
2022-08-26T20:02:39.343Z,78.67
2022-08-26T20:05:07.439Z,79.21
2022-08-26T20:07:34.141Z,79.24
2022-08-26T20:10:01.060Z,79.54
2022-08-26T20:12:27.886Z,79.75
2022-08-26T20:14:55.088Z,79.97
2022-08-26T20:17:21.824Z,79.89
2022-08-26T20:20:33.741Z,80.08
2022-08-26T20:23:02.057Z,79.92
2022-08-26T20:25:28.753Z,80.53
2022-08-26T20:27:55.409Z,81.17
2022-08-26T20:30:22.382Z,80.71
2022-08-26T20:32:49.132Z,80.74
2022-08-26T20:35:16.178Z,80.41
2022-08-26T20:37:42.933Z,80.68
2022-08-26T20:40:10.813Z,81.10
2022-08-26T20:42:38.312Z,81.00
2022-08-26T20:45:06.794Z,81.19
2022-08-26T20:47:33.802Z,81.07
2022-08-26T20:50:00.581Z,81.27
2022-08-26T20:52:27.600Z,81.16
2022-08-26T20:54:54.321Z,81.13
2022-08-26T20:57:22.401Z,81.07
2022-08-26T20:59:49.428Z,81.20
2022-08-26T21:02:16.281Z,81.33
2022-08-26T21:04:43.215Z,81.30
2022-08-26T21:07:10.075Z,81.26
2022-08-26T21:09:36.724Z,81.19
2022-08-26T21:12:05.356Z,80.81
2022-08-26T21:14:32.043Z,80.68
2022-08-26T21:16:58.768Z,80.72
2022-08-26T21:19:25.475Z,81.17
2022-08-26T21:21:52.239Z,81.41
2022-08-26T21:24:18.946Z,81.87
2022-08-26T21:26:45.666Z,82.33
2022-08-26T21:29:13.646Z,83.13
2022-08-26T21:31:45.707Z,83.05
2022-08-26T21:34:14.473Z,83.31
2022-08-26T21:36:41.123Z,82.54
2022-08-26T21:39:11.467Z,82.72
2022-08-26T21:41:38.651Z,82.48
2022-08-26T21:44:05.335Z,82.48
2022-08-26T21:46:32.034Z,82.81
2022-08-26T21:49:00.278Z,82.75
2022-08-26T21:51:29.127Z,83.00
2022-08-26T21:53:56.660Z,82.92
2022-08-26T21:56:24.289Z,83.03
2022-08-26T21:58:52.567Z,82.90
2022-08-26T22:01:21.485Z,82.73
2022-08-26T22:03:48.953Z,82.85
2022-08-26T22:06:20.684Z,82.60
2022-08-26T22:08:47.809Z,82.50
2022-08-26T22:11:14.840Z,82.71
2022-08-26T22:13:42.274Z,82.74
2022-08-26T22:16:09.633Z,82.99
2022-08-26T22:18:36.780Z,82.55
2022-08-26T22:21:06.042Z,82.27
2022-08-26T22:23:32.800Z,82.50
2022-08-26T22:25:59.505Z,82.26
2022-08-26T22:28:26.205Z,82.52
2022-08-26T22:30:53.039Z,82.36
2022-08-26T22:33:19.836Z,82.76
2022-08-26T22:35:48.649Z,83.13
2022-08-26T22:38:15.560Z,83.12
2022-08-26T22:40:47.567Z,83.02
2022-08-26T22:43:14.358Z,83.14
2022-08-26T22:45:42.817Z,83.51
2022-08-26T22:48:10.108Z,83.28
2022-08-26T22:50:37.093Z,83.18
2022-08-26T22:53:03.923Z,82.78
2022-08-26T22:55:30.580Z,83.11
2022-08-26T22:57:57.633Z,83.34
2022-08-26T23:00:31.869Z,83.60
2022-08-26T23:02:59.802Z,84.07
2022-08-26T23:05:26.625Z,84.20
2022-08-26T23:07:54.083Z,84.23
2022-08-26T23:10:20.956Z,83.28
2022-08-26T23:12:47.646Z,83.37
2022-08-26T23:15:16.420Z,83.34
2022-08-26T23:17:45.183Z,82.99
2022-08-26T23:20:12.837Z,83.14
2022-08-26T23:22:39.830Z,83.55
2022-08-26T23:25:08.355Z,83.31
2022-08-26T23:27:37.880Z,83.70
2022-08-26T23:30:05.986Z,83.61
2022-08-26T23:32:32.796Z,83.06
2022-08-26T23:34:59.686Z,82.97
2022-08-26T23:37:33.888Z,83.61
2022-08-26T23:40:06.535Z,83.86
2022-08-26T23:42:36.167Z,84.97
2022-08-26T23:45:04.412Z,85.16
2022-08-26T23:47:31.097Z,85.43
2022-08-26T23:49:58.043Z,85.95
2022-08-26T23:52:43.151Z,85.90
2022-08-26T23:55:10.890Z,85.39
2022-08-26T23:57:37.639Z,85.85
